Campiña-No se requiere un especial cuidado respecto a la situación meteorológica.   -   No hay avisos

Informes METAR

 

LEZL - Sevilla, Spain
Distancia de la estación: ENE 8km
Actualización: 26/05/2020 01:30
Despejado
Despejado
 Viento de variable
Viento: variable 4 km/h
Temperatura: 23°C
Rocío: 14°C
Humedad: 57%
Barómetro: 1020 hPa
Resumen: Despejado
Visibilidad: mayor de 10 km
2020/05/25 23:30 LEZL 252330Z AUTO VRB02KT CAVOK 23/14 Q1020
LEMO - Morón, Spain
Distancia de la estación: SE 43km
Actualización: 26/05/2020 01:00
Despejado
Despejado
 Viento de NNE
Viento: NNE 7 km/h
Temperatura: 20°C
Rocío: 10°C
Humedad: 53%
Barómetro: 1020 hPa
Resumen: Despejado
Visibilidad: mayor de 10 km
2020/05/25 23:00 LEMO 252300Z 03004KT 350V080 CAVOK 20/10 Q1020 NOSIG
LEJR - Jeréz, Spain
Distancia de la estación: S 71km
Actualización: 26/05/2020 01:30
Despejado
Despejado
 Viento de E
Viento: E 11 km/h
Temperatura: 21°C
Rocío: 9°C
Humedad: 46%
Barómetro: 1020 hPa
Resumen: Despejado
Visibilidad: mayor de 10 km
2020/05/25 23:30 LEJR 252330Z AUTO 09006KT CAVOK 21/09 Q1020
 
LERT - Rota, Spain
Distancia de la estación: SSO 89km
Actualización: 26/05/2020 01:00
Despejado
Despejado
 Viento de ESE
Viento: ESE 30 km/h
Temperatura: 22°C
Rocío: 10°C
Humedad: 47%
Barómetro: 1020 hPa
Nubes: Despejado
Visibilidad: 10 km
2020/05/25 23:00 LERT 252300Z AUTO 11016KT 9999 NCD 22/10 Q1020
LEMG - Málaga, Spain
Distancia de la estación: ESE 157km
Actualización: 26/05/2020 01:30
Despejado
Despejado
 Viento de O
Viento: O 4 km/h
Temperatura: 18°C
Rocío: 14°C
Humedad: 78%
Barómetro: 1024 hPa
Resumen: Despejado
Visibilidad: mayor de 10 km
2020/05/25 23:30 LEMG 252330Z 27002KT CAVOK 18/14 Q1024 NOSIG
LEBA - Córdoba, Spain
Distancia de la estación: ENE 115km
Actualización: 26/05/2020 01:30
Despejado
Despejado
 Viento de O
Viento: O 7 km/h
Temperatura: 19°C
Rocío: 12°C
Humedad: 64%
Barómetro: 1021 hPa
Resumen: Despejado
Visibilidad: mayor de 10 km
2020/05/25 23:30 LEBA 252330Z AUTO 26004KT CAVOK 19/12 Q1021
 
LEGR - Granada, Spain
Distancia de la estación: E 198km
Actualización: 26/05/2020 01:30
Despejado
Despejado
 Viento de ONO
Viento: ONO 2 km/h
Temperatura: 18°C
Rocío: 12°C
Humedad: 68%
Barómetro: 1024 hPa
Resumen: Despejado
Visibilidad: mayor de 10 km
2020/05/25 23:30 LEGR 252330Z AUTO 30001KT CAVOK 18/12 Q1024
LEAM - Almería, Spain
Distancia de la estación: E 326km
Actualización: 26/05/2020 01:30
Despejado
Despejado
 Viento de variable
Viento: variable 2 km/h
Temperatura: 20°C
Rocío: 10°C
Humedad: 53%
Barómetro: 1023 hPa
Resumen: Despejado
Visibilidad: mayor de 10 km
2020/05/25 23:30 LEAM 252330Z AUTO VRB01KT CAVOK 20/10 Q1023
LEMD - Madrid/Barajas, Spain
Distancia de la estación: NNE 402km
Actualización: 26/05/2020 01:30
Poco nuboso
Poco nuboso
 Viento de NNO
Viento: NNO 7 km/h
Temperatura: 17°C
Rocío: 14°C
Humedad: 83%
Barómetro: 1026 hPa
Nubes: Poco nuboso
Visibilidad: 10 km
Detalles de las nubes: Poco nuboso 2438 m
2020/05/25 23:30 LEMD 252330Z 34004KT 280V060 9999 FEW080 17/14 Q1026 NOSIG
 
LEVD - Valladolid, Spain
Distancia de la estación: N 492km
Actualización: 26/05/2020 01:30
Despejado
Despejado
 Viento de ENE
Viento: ENE 26 km/h
Temperatura: 13°C
Rocío: 9°C
Humedad: 77%
Barómetro: 1027 hPa
Resumen: Despejado
Visibilidad: mayor de 10 km
2020/05/25 23:30 LEVD 252330Z AUTO 06014KT CAVOK 13/09 Q1027
LEBL - Barcelona, Spain
Distancia de la estación: NE 816km
Actualización: 26/05/2020 01:30
Despejado
Despejado
 Viento de NO
Viento: NO 7 km/h
Temperatura: 19°C
Rocío: 15°C
Humedad: 78%
Barómetro: 1026 hPa
Resumen: Despejado
Visibilidad: mayor de 10 km
2020/05/25 23:30 LEBL 252330Z 32004KT CAVOK 19/15 Q1026 NOSIG
LEVC - Valencia, Spain
Distancia de la estación: ENE 535km
Actualización: 26/05/2020 01:30
Despejado
Despejado
 Viento de ONO
Viento: ONO 9 km/h
Temperatura: 19°C
Rocío: 16°C
Humedad: 83%
Barómetro: 1026 hPa
Resumen: Despejado
Visibilidad: mayor de 10 km
2020/05/25 23:30 LEVC 252330Z 30005KT CAVOK 19/16 Q1026 NOSIG